<?xml version="1.0" encoding="UTF-8" standalone="no" ?>
<gpx xmlns="http://www.topografix.com/GPX/1/1" xmlns:xsi="http://www.w3.org/2001/XMLSchema-instance" xsi:schemaLocation="http://www.topografix.com/GPX/1/1 http://www.topografix.com/GPX/1/1/gpx.xsd" version="1.1" creator="VisuGPX - https://www.visugpx.com">
  <metadata>
    <name>83 - M - LE MUY</name>
    <desc><![CDATA[L'Endre, le Moulin de Gournié. Le MUY]]></desc>
  </metadata>
  <wpt lat="43.50477" lon="6.59033">
    <ele>93</ele>
    <name><![CDATA[Point de passage 1]]></name>
    <type><![CDATA[GENERIC]]></type>
  </wpt>
  <wpt lat="43.50468" lon="6.59096">
    <ele>78</ele>
    <name><![CDATA[Point de passage 2]]></name>
    <type><![CDATA[GENERIC]]></type>
  </wpt>
  <trk>
    <name><![CDATA[Randonnée du 24/09/2025 à 14:17]]></name>
    <trkseg>
      <trkpt lat="43.50477" lon="6.59033">
        <ele>93</ele>
        <time>2025-09-24T12:17:10.000Z</time>
      </trkpt>
      <trkpt lat="43.50481" lon="6.59036">
        <ele>90</ele>
        <time>2025-09-24T12:17:13.000Z</time>
      </trkpt>
      <trkpt lat="43.50499" lon="6.59028">
        <ele>82</ele>
        <time>2025-09-24T12:17:40.000Z</time>
      </trkpt>
      <trkpt lat="43.50522" lon="6.59025">
        <ele>81</ele>
        <time>2025-09-24T12:18:01.000Z</time>
      </trkpt>
      <trkpt lat="43.50545" lon="6.59025">
        <ele>85</ele>
        <time>2025-09-24T12:18:22.000Z</time>
      </trkpt>
      <trkpt lat="43.50569" lon="6.59024">
        <ele>84</ele>
        <time>2025-09-24T12:18:43.000Z</time>
      </trkpt>
      <trkpt lat="43.50592" lon="6.5902">
        <ele>83</ele>
        <time>2025-09-24T12:19:04.000Z</time>
      </trkpt>
      <trkpt lat="43.50616" lon="6.59016">
        <ele>82</ele>
        <time>2025-09-24T12:19:25.000Z</time>
      </trkpt>
      <trkpt lat="43.50639" lon="6.59012">
        <ele>82</ele>
        <time>2025-09-24T12:19:45.000Z</time>
      </trkpt>
      <trkpt lat="43.50662" lon="6.59007">
        <ele>82</ele>
        <time>2025-09-24T12:20:03.000Z</time>
      </trkpt>
      <trkpt lat="43.50685" lon="6.59003">
        <ele>81</ele>
        <time>2025-09-24T12:20:24.000Z</time>
      </trkpt>
      <trkpt lat="43.50707" lon="6.58995">
        <ele>81</ele>
        <time>2025-09-24T12:20:42.000Z</time>
      </trkpt>
      <trkpt lat="43.50729" lon="6.58983">
        <ele>82</ele>
        <time>2025-09-24T12:21:00.000Z</time>
      </trkpt>
      <trkpt lat="43.50752" lon="6.58972">
        <ele>82</ele>
        <time>2025-09-24T12:21:21.000Z</time>
      </trkpt>
      <trkpt lat="43.50773" lon="6.58956">
        <ele>82</ele>
        <time>2025-09-24T12:21:39.000Z</time>
      </trkpt>
      <trkpt lat="43.50794" lon="6.5894">
        <ele>83</ele>
        <time>2025-09-24T12:22:00.000Z</time>
      </trkpt>
      <trkpt lat="43.50818" lon="6.58936">
        <ele>83</ele>
        <time>2025-09-24T12:22:21.000Z</time>
      </trkpt>
      <trkpt lat="43.50841" lon="6.58933">
        <ele>83</ele>
        <time>2025-09-24T12:22:39.000Z</time>
      </trkpt>
      <trkpt lat="43.50864" lon="6.58933">
        <ele>84</ele>
        <time>2025-09-24T12:22:57.000Z</time>
      </trkpt>
      <trkpt lat="43.50888" lon="6.58931">
        <ele>84</ele>
        <time>2025-09-24T12:23:18.000Z</time>
      </trkpt>
      <trkpt lat="43.50911" lon="6.58929">
        <ele>85</ele>
        <time>2025-09-24T12:23:36.000Z</time>
      </trkpt>
      <trkpt lat="43.50934" lon="6.58928">
        <ele>85</ele>
        <time>2025-09-24T12:23:54.000Z</time>
      </trkpt>
      <trkpt lat="43.50958" lon="6.58926">
        <ele>86</ele>
        <time>2025-09-24T12:24:15.000Z</time>
      </trkpt>
      <trkpt lat="43.50984" lon="6.58919">
        <ele>86</ele>
        <time>2025-09-24T12:24:36.000Z</time>
      </trkpt>
      <trkpt lat="43.51008" lon="6.58913">
        <ele>86</ele>
        <time>2025-09-24T12:24:57.000Z</time>
      </trkpt>
      <trkpt lat="43.51029" lon="6.58899">
        <ele>86</ele>
        <time>2025-09-24T12:25:15.000Z</time>
      </trkpt>
      <trkpt lat="43.51049" lon="6.5888">
        <ele>86</ele>
        <time>2025-09-24T12:25:36.000Z</time>
      </trkpt>
      <trkpt lat="43.51068" lon="6.58859">
        <ele>86</ele>
        <time>2025-09-24T12:25:54.000Z</time>
      </trkpt>
      <trkpt lat="43.51086" lon="6.58838">
        <ele>85</ele>
        <time>2025-09-24T12:26:15.000Z</time>
      </trkpt>
      <trkpt lat="43.51104" lon="6.58819">
        <ele>85</ele>
        <time>2025-09-24T12:26:33.000Z</time>
      </trkpt>
      <trkpt lat="43.5112" lon="6.58797">
        <ele>85</ele>
        <time>2025-09-24T12:26:51.000Z</time>
      </trkpt>
      <trkpt lat="43.51137" lon="6.58775">
        <ele>85</ele>
        <time>2025-09-24T12:27:09.000Z</time>
      </trkpt>
      <trkpt lat="43.5115" lon="6.58749">
        <ele>85</ele>
        <time>2025-09-24T12:27:27.000Z</time>
      </trkpt>
      <trkpt lat="43.51164" lon="6.5872">
        <ele>85</ele>
        <time>2025-09-24T12:27:48.000Z</time>
      </trkpt>
      <trkpt lat="43.51182" lon="6.58696">
        <ele>86</ele>
        <time>2025-09-24T12:28:09.000Z</time>
      </trkpt>
      <trkpt lat="43.51201" lon="6.58678">
        <ele>86</ele>
        <time>2025-09-24T12:28:27.000Z</time>
      </trkpt>
      <trkpt lat="43.51222" lon="6.58668">
        <ele>87</ele>
        <time>2025-09-24T12:28:45.000Z</time>
      </trkpt>
      <trkpt lat="43.51244" lon="6.58671">
        <ele>87</ele>
        <time>2025-09-24T12:29:03.000Z</time>
      </trkpt>
      <trkpt lat="43.51268" lon="6.58684">
        <ele>88</ele>
        <time>2025-09-24T12:29:24.000Z</time>
      </trkpt>
      <trkpt lat="43.51291" lon="6.58693">
        <ele>88</ele>
        <time>2025-09-24T12:29:42.000Z</time>
      </trkpt>
      <trkpt lat="43.51314" lon="6.58701">
        <ele>89</ele>
        <time>2025-09-24T12:30:00.000Z</time>
      </trkpt>
      <trkpt lat="43.51335" lon="6.58714">
        <ele>89</ele>
        <time>2025-09-24T12:30:21.000Z</time>
      </trkpt>
      <trkpt lat="43.51355" lon="6.58734">
        <ele>90</ele>
        <time>2025-09-24T12:30:42.000Z</time>
      </trkpt>
      <trkpt lat="43.51372" lon="6.58755">
        <ele>91</ele>
        <time>2025-09-24T12:31:01.000Z</time>
      </trkpt>
      <trkpt lat="43.51391" lon="6.58771">
        <ele>91</ele>
        <time>2025-09-24T12:31:20.000Z</time>
      </trkpt>
      <trkpt lat="43.51416" lon="6.5877">
        <ele>91</ele>
        <time>2025-09-24T12:31:41.000Z</time>
      </trkpt>
      <trkpt lat="43.51437" lon="6.58761">
        <ele>92</ele>
        <time>2025-09-24T12:31:59.000Z</time>
      </trkpt>
      <trkpt lat="43.51458" lon="6.58745">
        <ele>93</ele>
        <time>2025-09-24T12:32:20.000Z</time>
      </trkpt>
      <trkpt lat="43.51464" lon="6.58718">
        <ele>94</ele>
        <time>2025-09-24T12:32:41.000Z</time>
      </trkpt>
      <trkpt lat="43.51451" lon="6.58694">
        <ele>95</ele>
        <time>2025-09-24T12:33:02.000Z</time>
      </trkpt>
      <trkpt lat="43.51446" lon="6.58665">
        <ele>96</ele>
        <time>2025-09-24T12:33:20.000Z</time>
      </trkpt>
      <trkpt lat="43.51462" lon="6.58646">
        <ele>97</ele>
        <time>2025-09-24T12:33:44.000Z</time>
      </trkpt>
      <trkpt lat="43.51486" lon="6.58641">
        <ele>98</ele>
        <time>2025-09-24T12:34:05.000Z</time>
      </trkpt>
      <trkpt lat="43.5151" lon="6.58636">
        <ele>98</ele>
        <time>2025-09-24T12:34:23.000Z</time>
      </trkpt>
      <trkpt lat="43.51532" lon="6.58632">
        <ele>98</ele>
        <time>2025-09-24T12:34:41.000Z</time>
      </trkpt>
      <trkpt lat="43.51555" lon="6.58634">
        <ele>98</ele>
        <time>2025-09-24T12:34:59.000Z</time>
      </trkpt>
      <trkpt lat="43.51576" lon="6.58639">
        <ele>98</ele>
        <time>2025-09-24T12:35:17.000Z</time>
      </trkpt>
      <trkpt lat="43.51592" lon="6.58619">
        <ele>99</ele>
        <time>2025-09-24T12:35:41.000Z</time>
      </trkpt>
      <trkpt lat="43.51606" lon="6.58593">
        <ele>101</ele>
        <time>2025-09-24T12:36:02.000Z</time>
      </trkpt>
      <trkpt lat="43.51626" lon="6.58576">
        <ele>102</ele>
        <time>2025-09-24T12:36:23.000Z</time>
      </trkpt>
      <trkpt lat="43.51648" lon="6.58571">
        <ele>103</ele>
        <time>2025-09-24T12:36:44.000Z</time>
      </trkpt>
      <trkpt lat="43.51671" lon="6.58571">
        <ele>104</ele>
        <time>2025-09-24T12:37:02.000Z</time>
      </trkpt>
      <trkpt lat="43.51695" lon="6.58576">
        <ele>105</ele>
        <time>2025-09-24T12:37:23.000Z</time>
      </trkpt>
      <trkpt lat="43.51719" lon="6.58578">
        <ele>106</ele>
        <time>2025-09-24T12:37:44.000Z</time>
      </trkpt>
      <trkpt lat="43.51743" lon="6.58581">
        <ele>106</ele>
        <time>2025-09-24T12:38:05.000Z</time>
      </trkpt>
      <trkpt lat="43.51766" lon="6.58582">
        <ele>106</ele>
        <time>2025-09-24T12:38:23.000Z</time>
      </trkpt>
      <trkpt lat="43.51789" lon="6.5858">
        <ele>105</ele>
        <time>2025-09-24T12:38:44.000Z</time>
      </trkpt>
      <trkpt lat="43.5181" lon="6.58563">
        <ele>104</ele>
        <time>2025-09-24T12:39:02.000Z</time>
      </trkpt>
      <trkpt lat="43.51829" lon="6.58548">
        <ele>103</ele>
        <time>2025-09-24T12:39:20.000Z</time>
      </trkpt>
      <trkpt lat="43.51848" lon="6.58525">
        <ele>102</ele>
        <time>2025-09-24T12:39:41.000Z</time>
      </trkpt>
      <trkpt lat="43.51865" lon="6.58501">
        <ele>101</ele>
        <time>2025-09-24T12:40:02.000Z</time>
      </trkpt>
      <trkpt lat="43.51884" lon="6.5848">
        <ele>100</ele>
        <time>2025-09-24T12:40:23.000Z</time>
      </trkpt>
      <trkpt lat="43.51905" lon="6.58467">
        <ele>99</ele>
        <time>2025-09-24T12:40:41.000Z</time>
      </trkpt>
      <trkpt lat="43.51924" lon="6.58453">
        <ele>98</ele>
        <time>2025-09-24T12:40:59.000Z</time>
      </trkpt>
      <trkpt lat="43.51933" lon="6.58425">
        <ele>97</ele>
        <time>2025-09-24T12:41:17.000Z</time>
      </trkpt>
      <trkpt lat="43.51937" lon="6.58394">
        <ele>96</ele>
        <time>2025-09-24T12:41:35.000Z</time>
      </trkpt>
      <trkpt lat="43.51942" lon="6.58364">
        <ele>95</ele>
        <time>2025-09-24T12:41:53.000Z</time>
      </trkpt>
      <trkpt lat="43.51945" lon="6.58332">
        <ele>94</ele>
        <time>2025-09-24T12:42:11.000Z</time>
      </trkpt>
      <trkpt lat="43.51939" lon="6.58302">
        <ele>94</ele>
        <time>2025-09-24T12:42:32.000Z</time>
      </trkpt>
      <trkpt lat="43.51925" lon="6.58277">
        <ele>94</ele>
        <time>2025-09-24T12:42:50.000Z</time>
      </trkpt>
      <trkpt lat="43.51922" lon="6.58244">
        <ele>94</ele>
        <time>2025-09-24T12:43:11.000Z</time>
      </trkpt>
      <trkpt lat="43.51928" lon="6.58211">
        <ele>94</ele>
        <time>2025-09-24T12:43:30.000Z</time>
      </trkpt>
      <trkpt lat="43.5194" lon="6.5818">
        <ele>94</ele>
        <time>2025-09-24T12:43:51.000Z</time>
      </trkpt>
      <trkpt lat="43.51951" lon="6.5815">
        <ele>94</ele>
        <time>2025-09-24T12:44:12.000Z</time>
      </trkpt>
      <trkpt lat="43.51964" lon="6.58121">
        <ele>95</ele>
        <time>2025-09-24T12:44:30.000Z</time>
      </trkpt>
      <trkpt lat="43.51979" lon="6.58097">
        <ele>95</ele>
        <time>2025-09-24T12:44:48.000Z</time>
      </trkpt>
      <trkpt lat="43.51993" lon="6.58072">
        <ele>95</ele>
        <time>2025-09-24T12:45:06.000Z</time>
      </trkpt>
      <trkpt lat="43.52006" lon="6.58047">
        <ele>95</ele>
        <time>2025-09-24T12:45:24.000Z</time>
      </trkpt>
      <trkpt lat="43.52021" lon="6.58021">
        <ele>96</ele>
        <time>2025-09-24T12:45:42.000Z</time>
      </trkpt>
      <trkpt lat="43.52038" lon="6.57999">
        <ele>96</ele>
        <time>2025-09-24T12:46:00.000Z</time>
      </trkpt>
      <trkpt lat="43.52055" lon="6.57975">
        <ele>96</ele>
        <time>2025-09-24T12:46:21.000Z</time>
      </trkpt>
      <trkpt lat="43.52071" lon="6.57953">
        <ele>97</ele>
        <time>2025-09-24T12:46:39.000Z</time>
      </trkpt>
      <trkpt lat="43.52087" lon="6.57931">
        <ele>97</ele>
        <time>2025-09-24T12:46:57.000Z</time>
      </trkpt>
      <trkpt lat="43.52104" lon="6.5791">
        <ele>98</ele>
        <time>2025-09-24T12:47:15.000Z</time>
      </trkpt>
      <trkpt lat="43.52122" lon="6.57885">
        <ele>98</ele>
        <time>2025-09-24T12:47:37.000Z</time>
      </trkpt>
      <trkpt lat="43.52136" lon="6.5786">
        <ele>98</ele>
        <time>2025-09-24T12:47:55.000Z</time>
      </trkpt>
      <trkpt lat="43.52155" lon="6.57837">
        <ele>99</ele>
        <time>2025-09-24T12:48:16.000Z</time>
      </trkpt>
      <trkpt lat="43.52176" lon="6.57819">
        <ele>98</ele>
        <time>2025-09-24T12:48:49.000Z</time>
      </trkpt>
      <trkpt lat="43.52198" lon="6.57806">
        <ele>98</ele>
        <time>2025-09-24T12:49:10.000Z</time>
      </trkpt>
      <trkpt lat="43.52221" lon="6.57796">
        <ele>98</ele>
        <time>2025-09-24T12:49:31.000Z</time>
      </trkpt>
      <trkpt lat="43.52245" lon="6.57789">
        <ele>98</ele>
        <time>2025-09-24T12:49:50.000Z</time>
      </trkpt>
      <trkpt lat="43.52267" lon="6.57777">
        <ele>98</ele>
        <time>2025-09-24T12:50:08.000Z</time>
      </trkpt>
      <trkpt lat="43.52287" lon="6.57763">
        <ele>98</ele>
        <time>2025-09-24T12:50:29.000Z</time>
      </trkpt>
      <trkpt lat="43.52307" lon="6.57744">
        <ele>99</ele>
        <time>2025-09-24T12:50:50.000Z</time>
      </trkpt>
      <trkpt lat="43.52331" lon="6.57737">
        <ele>100</ele>
        <time>2025-09-24T12:51:11.000Z</time>
      </trkpt>
      <trkpt lat="43.52354" lon="6.57732">
        <ele>101</ele>
        <time>2025-09-24T12:51:29.000Z</time>
      </trkpt>
      <trkpt lat="43.52377" lon="6.57728">
        <ele>101</ele>
        <time>2025-09-24T12:51:50.000Z</time>
      </trkpt>
      <trkpt lat="43.52402" lon="6.57723">
        <ele>102</ele>
        <time>2025-09-24T12:52:11.000Z</time>
      </trkpt>
      <trkpt lat="43.52426" lon="6.57728">
        <ele>102</ele>
        <time>2025-09-24T12:52:32.000Z</time>
      </trkpt>
      <trkpt lat="43.52448" lon="6.57735">
        <ele>102</ele>
        <time>2025-09-24T12:52:50.000Z</time>
      </trkpt>
      <trkpt lat="43.52472" lon="6.57739">
        <ele>102</ele>
        <time>2025-09-24T12:53:08.000Z</time>
      </trkpt>
      <trkpt lat="43.52495" lon="6.57745">
        <ele>101</ele>
        <time>2025-09-24T12:53:26.000Z</time>
      </trkpt>
      <trkpt lat="43.52519" lon="6.57752">
        <ele>101</ele>
        <time>2025-09-24T12:53:47.000Z</time>
      </trkpt>
      <trkpt lat="43.52541" lon="6.57761">
        <ele>101</ele>
        <time>2025-09-24T12:54:05.000Z</time>
      </trkpt>
      <trkpt lat="43.52562" lon="6.57773">
        <ele>100</ele>
        <time>2025-09-24T12:54:23.000Z</time>
      </trkpt>
      <trkpt lat="43.52584" lon="6.57785">
        <ele>101</ele>
        <time>2025-09-24T12:54:44.000Z</time>
      </trkpt>
      <trkpt lat="43.52603" lon="6.57802">
        <ele>101</ele>
        <time>2025-09-24T12:55:02.000Z</time>
      </trkpt>
      <trkpt lat="43.5262" lon="6.57826">
        <ele>102</ele>
        <time>2025-09-24T12:55:26.000Z</time>
      </trkpt>
      <trkpt lat="43.52638" lon="6.57845">
        <ele>104</ele>
        <time>2025-09-24T12:55:53.000Z</time>
      </trkpt>
      <trkpt lat="43.52658" lon="6.57863">
        <ele>107</ele>
        <time>2025-09-24T12:59:15.000Z</time>
      </trkpt>
      <trkpt lat="43.52679" lon="6.57875">
        <ele>110</ele>
        <time>2025-09-24T13:03:12.000Z</time>
      </trkpt>
      <trkpt lat="43.52696" lon="6.57893">
        <ele>114</ele>
        <time>2025-09-24T13:03:54.000Z</time>
      </trkpt>
      <trkpt lat="43.52709" lon="6.57918">
        <ele>118</ele>
        <time>2025-09-24T13:04:45.000Z</time>
      </trkpt>
      <trkpt lat="43.52725" lon="6.57938">
        <ele>121</ele>
        <time>2025-09-24T13:06:15.000Z</time>
      </trkpt>
      <trkpt lat="43.52738" lon="6.57964">
        <ele>125</ele>
        <time>2025-09-24T13:07:21.000Z</time>
      </trkpt>
      <trkpt lat="43.52741" lon="6.57994">
        <ele>129</ele>
        <time>2025-09-24T13:10:33.000Z</time>
      </trkpt>
      <trkpt lat="43.52741" lon="6.58025">
        <ele>132</ele>
        <time>2025-09-24T13:11:24.000Z</time>
      </trkpt>
      <trkpt lat="43.52743" lon="6.58057">
        <ele>136</ele>
        <time>2025-09-24T13:12:09.000Z</time>
      </trkpt>
      <trkpt lat="43.52742" lon="6.58089">
        <ele>140</ele>
        <time>2025-09-24T13:12:48.000Z</time>
      </trkpt>
      <trkpt lat="43.52734" lon="6.58118">
        <ele>145</ele>
        <time>2025-09-24T13:13:24.000Z</time>
      </trkpt>
      <trkpt lat="43.52729" lon="6.58146">
        <ele>150</ele>
        <time>2025-09-24T13:15:21.000Z</time>
      </trkpt>
      <trkpt lat="43.52744" lon="6.58168">
        <ele>155</ele>
        <time>2025-09-24T13:15:57.000Z</time>
      </trkpt>
      <trkpt lat="43.52761" lon="6.5819">
        <ele>160</ele>
        <time>2025-09-24T13:16:36.000Z</time>
      </trkpt>
      <trkpt lat="43.5278" lon="6.58208">
        <ele>165</ele>
        <time>2025-09-24T13:19:15.000Z</time>
      </trkpt>
      <trkpt lat="43.52799" lon="6.58227">
        <ele>169</ele>
        <time>2025-09-24T13:20:06.000Z</time>
      </trkpt>
      <trkpt lat="43.52806" lon="6.58257">
        <ele>172</ele>
        <time>2025-09-24T13:20:45.000Z</time>
      </trkpt>
      <trkpt lat="43.52803" lon="6.58289">
        <ele>176</ele>
        <time>2025-09-24T13:21:39.000Z</time>
      </trkpt>
      <trkpt lat="43.52804" lon="6.58323">
        <ele>179</ele>
        <time>2025-09-24T13:22:09.000Z</time>
      </trkpt>
      <trkpt lat="43.52795" lon="6.58347">
        <ele>182</ele>
        <time>2025-09-24T13:22:36.000Z</time>
      </trkpt>
      <trkpt lat="43.52773" lon="6.58344">
        <ele>185</ele>
        <time>2025-09-24T13:22:57.000Z</time>
      </trkpt>
      <trkpt lat="43.5275" lon="6.58349">
        <ele>188</ele>
        <time>2025-09-24T13:23:45.000Z</time>
      </trkpt>
      <trkpt lat="43.52728" lon="6.58357">
        <ele>192</ele>
        <time>2025-09-24T13:24:24.000Z</time>
      </trkpt>
      <trkpt lat="43.52707" lon="6.58372">
        <ele>196</ele>
        <time>2025-09-24T13:24:57.000Z</time>
      </trkpt>
      <trkpt lat="43.52686" lon="6.58384">
        <ele>199</ele>
        <time>2025-09-24T13:25:33.000Z</time>
      </trkpt>
      <trkpt lat="43.52664" lon="6.58391">
        <ele>204</ele>
        <time>2025-09-24T13:26:03.000Z</time>
      </trkpt>
      <trkpt lat="43.52644" lon="6.58401">
        <ele>209</ele>
        <time>2025-09-24T13:26:40.000Z</time>
      </trkpt>
      <trkpt lat="43.52642" lon="6.5843">
        <ele>215</ele>
        <time>2025-09-24T13:27:04.000Z</time>
      </trkpt>
      <trkpt lat="43.52651" lon="6.58459">
        <ele>221</ele>
        <time>2025-09-24T13:27:43.000Z</time>
      </trkpt>
      <trkpt lat="43.52661" lon="6.58487">
        <ele>228</ele>
        <time>2025-09-24T13:28:40.000Z</time>
      </trkpt>
      <trkpt lat="43.52663" lon="6.58517">
        <ele>235</ele>
        <time>2025-09-24T13:29:34.000Z</time>
      </trkpt>
      <trkpt lat="43.52668" lon="6.58545">
        <ele>243</ele>
        <time>2025-09-24T13:31:25.000Z</time>
      </trkpt>
      <trkpt lat="43.52687" lon="6.58559">
        <ele>250</ele>
        <time>2025-09-24T13:32:16.000Z</time>
      </trkpt>
      <trkpt lat="43.52703" lon="6.5858">
        <ele>258</ele>
        <time>2025-09-24T13:33:16.000Z</time>
      </trkpt>
      <trkpt lat="43.52709" lon="6.58608">
        <ele>265</ele>
        <time>2025-09-24T13:34:34.000Z</time>
      </trkpt>
      <trkpt lat="43.52706" lon="6.58638">
        <ele>273</ele>
        <time>2025-09-24T13:35:37.000Z</time>
      </trkpt>
      <trkpt lat="43.52699" lon="6.58663">
        <ele>281</ele>
        <time>2025-09-24T13:37:01.000Z</time>
      </trkpt>
      <trkpt lat="43.52716" lon="6.58676">
        <ele>289</ele>
        <time>2025-09-24T13:37:46.000Z</time>
      </trkpt>
      <trkpt lat="43.52731" lon="6.58699">
        <ele>296</ele>
        <time>2025-09-24T13:39:34.000Z</time>
      </trkpt>
      <trkpt lat="43.52747" lon="6.58724">
        <ele>302</ele>
        <time>2025-09-24T13:41:28.000Z</time>
      </trkpt>
      <trkpt lat="43.52762" lon="6.58749">
        <ele>307</ele>
        <time>2025-09-24T13:42:16.000Z</time>
      </trkpt>
      <trkpt lat="43.52777" lon="6.58772">
        <ele>311</ele>
        <time>2025-09-24T13:52:19.000Z</time>
      </trkpt>
      <trkpt lat="43.52796" lon="6.58786">
        <ele>313</ele>
        <time>2025-09-24T13:52:58.000Z</time>
      </trkpt>
      <trkpt lat="43.52818" lon="6.58798">
        <ele>314</ele>
        <time>2025-09-24T13:55:34.000Z</time>
      </trkpt>
      <trkpt lat="43.52834" lon="6.58802">
        <ele>313</ele>
        <time>2025-09-24T13:56:28.000Z</time>
      </trkpt>
      <trkpt lat="43.52816" lon="6.58797">
        <ele>311</ele>
        <time>2025-09-24T13:59:58.000Z</time>
      </trkpt>
      <trkpt lat="43.52795" lon="6.58787">
        <ele>309</ele>
        <time>2025-09-24T14:00:34.000Z</time>
      </trkpt>
      <trkpt lat="43.52775" lon="6.58775">
        <ele>306</ele>
        <time>2025-09-24T14:01:13.000Z</time>
      </trkpt>
      <trkpt lat="43.52753" lon="6.58773">
        <ele>302</ele>
        <time>2025-09-24T14:09:56.000Z</time>
      </trkpt>
      <trkpt lat="43.52732" lon="6.58765">
        <ele>297</ele>
        <time>2025-09-24T14:10:59.000Z</time>
      </trkpt>
      <trkpt lat="43.52713" lon="6.5875">
        <ele>293</ele>
        <time>2025-09-24T14:12:32.000Z</time>
      </trkpt>
      <trkpt lat="43.52693" lon="6.58741">
        <ele>288</ele>
        <time>2025-09-24T14:13:20.000Z</time>
      </trkpt>
      <trkpt lat="43.52673" lon="6.58754">
        <ele>283</ele>
        <time>2025-09-24T14:13:56.000Z</time>
      </trkpt>
      <trkpt lat="43.52651" lon="6.58759">
        <ele>278</ele>
        <time>2025-09-24T14:14:50.000Z</time>
      </trkpt>
      <trkpt lat="43.52632" lon="6.58774">
        <ele>274</ele>
        <time>2025-09-24T14:15:38.000Z</time>
      </trkpt>
      <trkpt lat="43.52621" lon="6.588">
        <ele>269</ele>
        <time>2025-09-24T14:16:47.000Z</time>
      </trkpt>
      <trkpt lat="43.52612" lon="6.58829">
        <ele>264</ele>
        <time>2025-09-24T14:17:23.000Z</time>
      </trkpt>
      <trkpt lat="43.52596" lon="6.58851">
        <ele>259</ele>
        <time>2025-09-24T14:18:02.000Z</time>
      </trkpt>
      <trkpt lat="43.52579" lon="6.58872">
        <ele>254</ele>
        <time>2025-09-24T14:18:50.000Z</time>
      </trkpt>
      <trkpt lat="43.52562" lon="6.58894">
        <ele>249</ele>
        <time>2025-09-24T14:19:29.000Z</time>
      </trkpt>
      <trkpt lat="43.5255" lon="6.5892">
        <ele>244</ele>
        <time>2025-09-24T14:20:08.000Z</time>
      </trkpt>
      <trkpt lat="43.52542" lon="6.5895">
        <ele>240</ele>
        <time>2025-09-24T14:20:47.000Z</time>
      </trkpt>
      <trkpt lat="43.52543" lon="6.5898">
        <ele>236</ele>
        <time>2025-09-24T14:22:41.000Z</time>
      </trkpt>
      <trkpt lat="43.52535" lon="6.59008">
        <ele>232</ele>
        <time>2025-09-24T14:23:38.000Z</time>
      </trkpt>
      <trkpt lat="43.52527" lon="6.59037">
        <ele>228</ele>
        <time>2025-09-24T14:24:26.000Z</time>
      </trkpt>
      <trkpt lat="43.52521" lon="6.59069">
        <ele>224</ele>
        <time>2025-09-24T14:24:59.000Z</time>
      </trkpt>
      <trkpt lat="43.52517" lon="6.591">
        <ele>221</ele>
        <time>2025-09-24T14:25:32.000Z</time>
      </trkpt>
      <trkpt lat="43.52512" lon="6.59131">
        <ele>218</ele>
        <time>2025-09-24T14:26:05.000Z</time>
      </trkpt>
      <trkpt lat="43.52506" lon="6.5916">
        <ele>216</ele>
        <time>2025-09-24T14:26:57.000Z</time>
      </trkpt>
      <trkpt lat="43.5251" lon="6.59193">
        <ele>213</ele>
        <time>2025-09-24T14:27:23.000Z</time>
      </trkpt>
      <trkpt lat="43.52519" lon="6.59222">
        <ele>211</ele>
        <time>2025-09-24T14:27:43.000Z</time>
      </trkpt>
      <trkpt lat="43.52527" lon="6.59252">
        <ele>209</ele>
        <time>2025-09-24T14:28:05.000Z</time>
      </trkpt>
      <trkpt lat="43.52533" lon="6.59284">
        <ele>207</ele>
        <time>2025-09-24T14:28:29.000Z</time>
      </trkpt>
      <trkpt lat="43.5254" lon="6.59317">
        <ele>206</ele>
        <time>2025-09-24T14:28:59.000Z</time>
      </trkpt>
      <trkpt lat="43.52547" lon="6.59348">
        <ele>205</ele>
        <time>2025-09-24T14:29:23.000Z</time>
      </trkpt>
      <trkpt lat="43.52552" lon="6.59379">
        <ele>205</ele>
        <time>2025-09-24T14:29:50.000Z</time>
      </trkpt>
      <trkpt lat="43.52555" lon="6.59413">
        <ele>204</ele>
        <time>2025-09-24T14:30:17.000Z</time>
      </trkpt>
      <trkpt lat="43.5256" lon="6.59447">
        <ele>202</ele>
        <time>2025-09-24T14:30:44.000Z</time>
      </trkpt>
      <trkpt lat="43.52564" lon="6.5948">
        <ele>200</ele>
        <time>2025-09-24T14:31:05.000Z</time>
      </trkpt>
      <trkpt lat="43.5257" lon="6.59511">
        <ele>198</ele>
        <time>2025-09-24T14:31:32.000Z</time>
      </trkpt>
      <trkpt lat="43.52578" lon="6.59542">
        <ele>196</ele>
        <time>2025-09-24T14:32:11.000Z</time>
      </trkpt>
      <trkpt lat="43.52587" lon="6.59572">
        <ele>195</ele>
        <time>2025-09-24T14:33:08.000Z</time>
      </trkpt>
      <trkpt lat="43.52579" lon="6.59599">
        <ele>194</ele>
        <time>2025-09-24T14:33:53.000Z</time>
      </trkpt>
      <trkpt lat="43.52565" lon="6.59623">
        <ele>193</ele>
        <time>2025-09-24T14:34:44.000Z</time>
      </trkpt>
      <trkpt lat="43.52551" lon="6.59651">
        <ele>191</ele>
        <time>2025-09-24T14:35:08.000Z</time>
      </trkpt>
      <trkpt lat="43.52535" lon="6.59678">
        <ele>190</ele>
        <time>2025-09-24T14:35:32.000Z</time>
      </trkpt>
      <trkpt lat="43.5252" lon="6.59703">
        <ele>189</ele>
        <time>2025-09-24T14:35:56.000Z</time>
      </trkpt>
      <trkpt lat="43.52506" lon="6.59728">
        <ele>187</ele>
        <time>2025-09-24T14:36:20.000Z</time>
      </trkpt>
      <trkpt lat="43.52498" lon="6.59758">
        <ele>185</ele>
        <time>2025-09-24T14:36:47.000Z</time>
      </trkpt>
      <trkpt lat="43.52489" lon="6.59782">
        <ele>182</ele>
        <time>2025-09-24T14:37:11.000Z</time>
      </trkpt>
      <trkpt lat="43.52474" lon="6.59766">
        <ele>180</ele>
        <time>2025-09-24T14:38:09.000Z</time>
      </trkpt>
      <trkpt lat="43.52462" lon="6.59737">
        <ele>177</ele>
        <time>2025-09-24T14:38:33.000Z</time>
      </trkpt>
      <trkpt lat="43.52445" lon="6.5972">
        <ele>175</ele>
        <time>2025-09-24T14:39:00.000Z</time>
      </trkpt>
      <trkpt lat="43.52431" lon="6.5974">
        <ele>172</ele>
        <time>2025-09-24T14:39:27.000Z</time>
      </trkpt>
      <trkpt lat="43.52422" lon="6.59771">
        <ele>170</ele>
        <time>2025-09-24T14:39:57.000Z</time>
      </trkpt>
      <trkpt lat="43.52415" lon="6.59801">
        <ele>168</ele>
        <time>2025-09-24T14:40:18.000Z</time>
      </trkpt>
      <trkpt lat="43.5241" lon="6.59832">
        <ele>166</ele>
        <time>2025-09-24T14:40:42.000Z</time>
      </trkpt>
      <trkpt lat="43.52406" lon="6.59863">
        <ele>164</ele>
        <time>2025-09-24T14:41:03.000Z</time>
      </trkpt>
      <trkpt lat="43.52392" lon="6.5989">
        <ele>162</ele>
        <time>2025-09-24T14:41:27.000Z</time>
      </trkpt>
      <trkpt lat="43.52373" lon="6.59907">
        <ele>161</ele>
        <time>2025-09-24T14:41:51.000Z</time>
      </trkpt>
      <trkpt lat="43.52354" lon="6.59925">
        <ele>160</ele>
        <time>2025-09-24T14:42:15.000Z</time>
      </trkpt>
      <trkpt lat="43.52344" lon="6.59951">
        <ele>160</ele>
        <time>2025-09-24T14:42:42.000Z</time>
      </trkpt>
      <trkpt lat="43.52354" lon="6.59976">
        <ele>160</ele>
        <time>2025-09-24T14:43:09.000Z</time>
      </trkpt>
      <trkpt lat="43.52369" lon="6.59998">
        <ele>160</ele>
        <time>2025-09-24T14:43:30.000Z</time>
      </trkpt>
      <trkpt lat="43.52367" lon="6.60029">
        <ele>160</ele>
        <time>2025-09-24T14:43:54.000Z</time>
      </trkpt>
      <trkpt lat="43.52364" lon="6.60062">
        <ele>159</ele>
        <time>2025-09-24T14:44:18.000Z</time>
      </trkpt>
      <trkpt lat="43.52369" lon="6.60092">
        <ele>159</ele>
        <time>2025-09-24T14:44:39.000Z</time>
      </trkpt>
      <trkpt lat="43.52386" lon="6.60112">
        <ele>159</ele>
        <time>2025-09-24T14:45:03.000Z</time>
      </trkpt>
      <trkpt lat="43.524" lon="6.60134">
        <ele>159</ele>
        <time>2025-09-24T14:45:27.000Z</time>
      </trkpt>
      <trkpt lat="43.52386" lon="6.60154">
        <ele>159</ele>
        <time>2025-09-24T14:45:51.000Z</time>
      </trkpt>
      <trkpt lat="43.52366" lon="6.60168">
        <ele>158</ele>
        <time>2025-09-24T14:46:15.000Z</time>
      </trkpt>
      <trkpt lat="43.52346" lon="6.60187">
        <ele>157</ele>
        <time>2025-09-24T14:47:33.000Z</time>
      </trkpt>
      <trkpt lat="43.52325" lon="6.60201">
        <ele>157</ele>
        <time>2025-09-24T14:47:57.000Z</time>
      </trkpt>
      <trkpt lat="43.52303" lon="6.60212">
        <ele>156</ele>
        <time>2025-09-24T14:48:21.000Z</time>
      </trkpt>
      <trkpt lat="43.52279" lon="6.60214">
        <ele>155</ele>
        <time>2025-09-24T14:48:45.000Z</time>
      </trkpt>
      <trkpt lat="43.52258" lon="6.60204">
        <ele>155</ele>
        <time>2025-09-24T14:49:09.000Z</time>
      </trkpt>
      <trkpt lat="43.52235" lon="6.60196">
        <ele>154</ele>
        <time>2025-09-24T14:49:33.000Z</time>
      </trkpt>
      <trkpt lat="43.52211" lon="6.6019">
        <ele>153</ele>
        <time>2025-09-24T14:49:57.000Z</time>
      </trkpt>
      <trkpt lat="43.52189" lon="6.60186">
        <ele>153</ele>
        <time>2025-09-24T14:50:17.000Z</time>
      </trkpt>
      <trkpt lat="43.52165" lon="6.60185">
        <ele>154</ele>
        <time>2025-09-24T14:50:38.000Z</time>
      </trkpt>
      <trkpt lat="43.5214" lon="6.60184">
        <ele>154</ele>
        <time>2025-09-24T14:50:59.000Z</time>
      </trkpt>
      <trkpt lat="43.52118" lon="6.60186">
        <ele>154</ele>
        <time>2025-09-24T14:51:17.000Z</time>
      </trkpt>
      <trkpt lat="43.52094" lon="6.60189">
        <ele>155</ele>
        <time>2025-09-24T14:51:44.000Z</time>
      </trkpt>
      <trkpt lat="43.5207" lon="6.60189">
        <ele>154</ele>
        <time>2025-09-24T14:52:08.000Z</time>
      </trkpt>
      <trkpt lat="43.52046" lon="6.60185">
        <ele>154</ele>
        <time>2025-09-24T14:52:29.000Z</time>
      </trkpt>
      <trkpt lat="43.52023" lon="6.60181">
        <ele>153</ele>
        <time>2025-09-24T14:53:02.000Z</time>
      </trkpt>
      <trkpt lat="43.52005" lon="6.60159">
        <ele>152</ele>
        <time>2025-09-24T14:53:29.000Z</time>
      </trkpt>
      <trkpt lat="43.51992" lon="6.60132">
        <ele>151</ele>
        <time>2025-09-24T14:53:50.000Z</time>
      </trkpt>
      <trkpt lat="43.51975" lon="6.60111">
        <ele>151</ele>
        <time>2025-09-24T14:54:11.000Z</time>
      </trkpt>
      <trkpt lat="43.51956" lon="6.60092">
        <ele>150</ele>
        <time>2025-09-24T14:54:32.000Z</time>
      </trkpt>
      <trkpt lat="43.51936" lon="6.60072">
        <ele>149</ele>
        <time>2025-09-24T14:54:53.000Z</time>
      </trkpt>
      <trkpt lat="43.51914" lon="6.60068">
        <ele>148</ele>
        <time>2025-09-24T14:55:11.000Z</time>
      </trkpt>
      <trkpt lat="43.51892" lon="6.60075">
        <ele>147</ele>
        <time>2025-09-24T14:55:29.000Z</time>
      </trkpt>
      <trkpt lat="43.5187" lon="6.60081">
        <ele>146</ele>
        <time>2025-09-24T14:55:50.000Z</time>
      </trkpt>
      <trkpt lat="43.51846" lon="6.60084">
        <ele>144</ele>
        <time>2025-09-24T14:56:14.000Z</time>
      </trkpt>
      <trkpt lat="43.51822" lon="6.60083">
        <ele>143</ele>
        <time>2025-09-24T14:56:35.000Z</time>
      </trkpt>
      <trkpt lat="43.51797" lon="6.60082">
        <ele>141</ele>
        <time>2025-09-24T14:56:56.000Z</time>
      </trkpt>
      <trkpt lat="43.51775" lon="6.6008">
        <ele>140</ele>
        <time>2025-09-24T14:57:14.000Z</time>
      </trkpt>
      <trkpt lat="43.51752" lon="6.60079">
        <ele>138</ele>
        <time>2025-09-24T14:57:32.000Z</time>
      </trkpt>
      <trkpt lat="43.51729" lon="6.60078">
        <ele>137</ele>
        <time>2025-09-24T14:57:50.000Z</time>
      </trkpt>
      <trkpt lat="43.51707" lon="6.60077">
        <ele>136</ele>
        <time>2025-09-24T14:58:08.000Z</time>
      </trkpt>
      <trkpt lat="43.51684" lon="6.60075">
        <ele>136</ele>
        <time>2025-09-24T14:58:26.000Z</time>
      </trkpt>
      <trkpt lat="43.51659" lon="6.60073">
        <ele>136</ele>
        <time>2025-09-24T14:58:47.000Z</time>
      </trkpt>
      <trkpt lat="43.51634" lon="6.60074">
        <ele>136</ele>
        <time>2025-09-24T14:59:08.000Z</time>
      </trkpt>
      <trkpt lat="43.51609" lon="6.60074">
        <ele>137</ele>
        <time>2025-09-24T14:59:29.000Z</time>
      </trkpt>
      <trkpt lat="43.51587" lon="6.60073">
        <ele>137</ele>
        <time>2025-09-24T14:59:47.000Z</time>
      </trkpt>
      <trkpt lat="43.51564" lon="6.60072">
        <ele>137</ele>
        <time>2025-09-24T15:00:05.000Z</time>
      </trkpt>
      <trkpt lat="43.5154" lon="6.60071">
        <ele>137</ele>
        <time>2025-09-24T15:00:26.000Z</time>
      </trkpt>
      <trkpt lat="43.51517" lon="6.60068">
        <ele>137</ele>
        <time>2025-09-24T15:00:45.000Z</time>
      </trkpt>
      <trkpt lat="43.51496" lon="6.60055">
        <ele>137</ele>
        <time>2025-09-24T15:01:06.000Z</time>
      </trkpt>
      <trkpt lat="43.51478" lon="6.60034">
        <ele>137</ele>
        <time>2025-09-24T15:01:24.000Z</time>
      </trkpt>
      <trkpt lat="43.5146" lon="6.60013">
        <ele>136</ele>
        <time>2025-09-24T15:01:45.000Z</time>
      </trkpt>
      <trkpt lat="43.51441" lon="6.59997">
        <ele>136</ele>
        <time>2025-09-24T15:02:03.000Z</time>
      </trkpt>
      <trkpt lat="43.51419" lon="6.59994">
        <ele>135</ele>
        <time>2025-09-24T15:02:21.000Z</time>
      </trkpt>
      <trkpt lat="43.51399" lon="6.60009">
        <ele>135</ele>
        <time>2025-09-24T15:02:39.000Z</time>
      </trkpt>
      <trkpt lat="43.51379" lon="6.6003">
        <ele>134</ele>
        <time>2025-09-24T15:03:00.000Z</time>
      </trkpt>
      <trkpt lat="43.51361" lon="6.60052">
        <ele>134</ele>
        <time>2025-09-24T15:03:18.000Z</time>
      </trkpt>
      <trkpt lat="43.51343" lon="6.60072">
        <ele>133</ele>
        <time>2025-09-24T15:03:36.000Z</time>
      </trkpt>
      <trkpt lat="43.51326" lon="6.60094">
        <ele>132</ele>
        <time>2025-09-24T15:03:54.000Z</time>
      </trkpt>
      <trkpt lat="43.51309" lon="6.60115">
        <ele>132</ele>
        <time>2025-09-24T15:04:12.000Z</time>
      </trkpt>
      <trkpt lat="43.51291" lon="6.60136">
        <ele>131</ele>
        <time>2025-09-24T15:04:30.000Z</time>
      </trkpt>
      <trkpt lat="43.51271" lon="6.60153">
        <ele>131</ele>
        <time>2025-09-24T15:04:48.000Z</time>
      </trkpt>
      <trkpt lat="43.51252" lon="6.6017">
        <ele>130</ele>
        <time>2025-09-24T15:05:06.000Z</time>
      </trkpt>
      <trkpt lat="43.51231" lon="6.60188">
        <ele>129</ele>
        <time>2025-09-24T15:05:24.000Z</time>
      </trkpt>
      <trkpt lat="43.51208" lon="6.60203">
        <ele>129</ele>
        <time>2025-09-24T15:05:42.000Z</time>
      </trkpt>
      <trkpt lat="43.51185" lon="6.60218">
        <ele>128</ele>
        <time>2025-09-24T15:06:00.000Z</time>
      </trkpt>
      <trkpt lat="43.51162" lon="6.60229">
        <ele>128</ele>
        <time>2025-09-24T15:06:18.000Z</time>
      </trkpt>
      <trkpt lat="43.5114" lon="6.6024">
        <ele>128</ele>
        <time>2025-09-24T15:06:36.000Z</time>
      </trkpt>
      <trkpt lat="43.51117" lon="6.60252">
        <ele>128</ele>
        <time>2025-09-24T15:06:54.000Z</time>
      </trkpt>
      <trkpt lat="43.51093" lon="6.60256">
        <ele>127</ele>
        <time>2025-09-24T15:07:12.000Z</time>
      </trkpt>
      <trkpt lat="43.5107" lon="6.60248">
        <ele>126</ele>
        <time>2025-09-24T15:07:30.000Z</time>
      </trkpt>
      <trkpt lat="43.51049" lon="6.60229">
        <ele>125</ele>
        <time>2025-09-24T15:07:48.000Z</time>
      </trkpt>
      <trkpt lat="43.51031" lon="6.60208">
        <ele>124</ele>
        <time>2025-09-24T15:08:06.000Z</time>
      </trkpt>
      <trkpt lat="43.51012" lon="6.60187">
        <ele>122</ele>
        <time>2025-09-24T15:08:24.000Z</time>
      </trkpt>
      <trkpt lat="43.50992" lon="6.60168">
        <ele>121</ele>
        <time>2025-09-24T15:08:42.000Z</time>
      </trkpt>
      <trkpt lat="43.50976" lon="6.60142">
        <ele>120</ele>
        <time>2025-09-24T15:09:00.000Z</time>
      </trkpt>
      <trkpt lat="43.50968" lon="6.60112">
        <ele>118</ele>
        <time>2025-09-24T15:09:18.000Z</time>
      </trkpt>
      <trkpt lat="43.50962" lon="6.60081">
        <ele>118</ele>
        <time>2025-09-24T15:09:36.000Z</time>
      </trkpt>
      <trkpt lat="43.50952" lon="6.60053">
        <ele>117</ele>
        <time>2025-09-24T15:09:54.000Z</time>
      </trkpt>
      <trkpt lat="43.5093" lon="6.60034">
        <ele>117</ele>
        <time>2025-09-24T15:10:15.000Z</time>
      </trkpt>
      <trkpt lat="43.50906" lon="6.60026">
        <ele>117</ele>
        <time>2025-09-24T15:10:33.000Z</time>
      </trkpt>
      <trkpt lat="43.50884" lon="6.60018">
        <ele>118</ele>
        <time>2025-09-24T15:10:51.000Z</time>
      </trkpt>
      <trkpt lat="43.50861" lon="6.60007">
        <ele>118</ele>
        <time>2025-09-24T15:11:12.000Z</time>
      </trkpt>
      <trkpt lat="43.50838" lon="6.59996">
        <ele>118</ele>
        <time>2025-09-24T15:11:30.000Z</time>
      </trkpt>
      <trkpt lat="43.50816" lon="6.59989">
        <ele>117</ele>
        <time>2025-09-24T15:11:53.000Z</time>
      </trkpt>
      <trkpt lat="43.50792" lon="6.59984">
        <ele>116</ele>
        <time>2025-09-24T15:12:14.000Z</time>
      </trkpt>
      <trkpt lat="43.50769" lon="6.5998">
        <ele>115</ele>
        <time>2025-09-24T15:12:32.000Z</time>
      </trkpt>
      <trkpt lat="43.50747" lon="6.59968">
        <ele>113</ele>
        <time>2025-09-24T15:13:02.000Z</time>
      </trkpt>
      <trkpt lat="43.50731" lon="6.59945">
        <ele>112</ele>
        <time>2025-09-24T15:13:29.000Z</time>
      </trkpt>
      <trkpt lat="43.50726" lon="6.59916">
        <ele>112</ele>
        <time>2025-09-24T15:16:29.000Z</time>
      </trkpt>
      <trkpt lat="43.5073" lon="6.59886">
        <ele>111</ele>
        <time>2025-09-24T15:16:59.000Z</time>
      </trkpt>
      <trkpt lat="43.50732" lon="6.59854">
        <ele>111</ele>
        <time>2025-09-24T15:17:23.000Z</time>
      </trkpt>
      <trkpt lat="43.50728" lon="6.59821">
        <ele>110</ele>
        <time>2025-09-24T15:17:47.000Z</time>
      </trkpt>
      <trkpt lat="43.50716" lon="6.59795">
        <ele>110</ele>
        <time>2025-09-24T15:18:05.000Z</time>
      </trkpt>
      <trkpt lat="43.507" lon="6.59772">
        <ele>109</ele>
        <time>2025-09-24T15:18:23.000Z</time>
      </trkpt>
      <trkpt lat="43.50683" lon="6.59748">
        <ele>109</ele>
        <time>2025-09-24T15:18:44.000Z</time>
      </trkpt>
      <trkpt lat="43.50667" lon="6.59725">
        <ele>108</ele>
        <time>2025-09-24T15:19:02.000Z</time>
      </trkpt>
      <trkpt lat="43.50647" lon="6.5971">
        <ele>106</ele>
        <time>2025-09-24T15:19:23.000Z</time>
      </trkpt>
      <trkpt lat="43.5063" lon="6.59688">
        <ele>105</ele>
        <time>2025-09-24T15:19:42.000Z</time>
      </trkpt>
      <trkpt lat="43.50614" lon="6.59658">
        <ele>103</ele>
        <time>2025-09-24T15:20:04.000Z</time>
      </trkpt>
      <trkpt lat="43.50604" lon="6.59628">
        <ele>102</ele>
        <time>2025-09-24T15:20:25.000Z</time>
      </trkpt>
      <trkpt lat="43.50596" lon="6.59598">
        <ele>101</ele>
        <time>2025-09-24T15:20:49.000Z</time>
      </trkpt>
      <trkpt lat="43.5059" lon="6.59566">
        <ele>100</ele>
        <time>2025-09-24T15:21:16.000Z</time>
      </trkpt>
      <trkpt lat="43.50582" lon="6.59533">
        <ele>99</ele>
        <time>2025-09-24T15:21:37.000Z</time>
      </trkpt>
      <trkpt lat="43.50577" lon="6.59501">
        <ele>98</ele>
        <time>2025-09-24T15:21:58.000Z</time>
      </trkpt>
      <trkpt lat="43.50576" lon="6.59468">
        <ele>97</ele>
        <time>2025-09-24T15:22:19.000Z</time>
      </trkpt>
      <trkpt lat="43.50578" lon="6.59436">
        <ele>96</ele>
        <time>2025-09-24T15:22:40.000Z</time>
      </trkpt>
      <trkpt lat="43.50576" lon="6.59405">
        <ele>95</ele>
        <time>2025-09-24T15:23:01.000Z</time>
      </trkpt>
      <trkpt lat="43.50567" lon="6.59375">
        <ele>94</ele>
        <time>2025-09-24T15:23:25.000Z</time>
      </trkpt>
      <trkpt lat="43.50557" lon="6.59347">
        <ele>93</ele>
        <time>2025-09-24T15:23:46.000Z</time>
      </trkpt>
      <trkpt lat="43.50547" lon="6.59316">
        <ele>93</ele>
        <time>2025-09-24T15:24:10.000Z</time>
      </trkpt>
      <trkpt lat="43.50537" lon="6.59286">
        <ele>92</ele>
        <time>2025-09-24T15:24:34.000Z</time>
      </trkpt>
      <trkpt lat="43.50528" lon="6.59259">
        <ele>91</ele>
        <time>2025-09-24T15:24:55.000Z</time>
      </trkpt>
      <trkpt lat="43.50522" lon="6.59228">
        <ele>90</ele>
        <time>2025-09-24T15:25:16.000Z</time>
      </trkpt>
      <trkpt lat="43.50517" lon="6.59197">
        <ele>88</ele>
        <time>2025-09-24T15:25:40.000Z</time>
      </trkpt>
      <trkpt lat="43.50511" lon="6.59168">
        <ele>90</ele>
        <time>2025-09-24T15:26:13.000Z</time>
      </trkpt>
      <trkpt lat="43.50496" lon="6.59143">
        <ele>86</ele>
        <time>2025-09-24T15:27:16.000Z</time>
      </trkpt>
      <trkpt lat="43.50487" lon="6.59115">
        <ele>82</ele>
        <time>2025-09-24T15:27:58.000Z</time>
      </trkpt>
      <trkpt lat="43.50468" lon="6.59096">
        <ele>78</ele>
        <time>2025-09-24T15:28:28.000Z</time>
      </trkpt>
    </trkseg>
  </trk>
</gpx>